Time;durP1;ratioP1;P1;durP2;ratioP2;P2;SDS_P1;SDS_P2;PMS_P1;PMS_P2;Temp;Humidity;BMP_temperature;BMP_pressure;BME280_temperature;BME280_humidity;BME280_pressure;Samples;Min_cycle;Max_cycle;Signal;HPM_P1;HPM_P2
2023/12/16 00:01:03;;;;;;;37.07;12.47;;;5.40;99.90;;;;;;4970608;28;20351;-62
2023/12/16 00:03:28;;;;;;;32.00;13.17;;;5.40;99.90;;;;;;4971494;28;20193;-62
2023/12/16 00:05:54;;;;;;;30.57;12.83;;;5.30;99.90;;;;;;4971301;28;20181;-62
2023/12/16 00:08:21;;;;;;;28.53;12.07;;;5.40;99.90;;;;;;4971240;28;20208;-63
2023/12/16 00:10:46;;;;;;;36.80;14.50;;;5.40;99.90;;;;;;4969658;28;20699;-62
2023/12/16 00:13:12;;;;;;;25.83;10.30;;;5.40;99.90;;;;;;4970060;28;20261;-63
2023/12/16 00:15:38;;;;;;;32.23;10.60;;;5.40;99.90;;;;;;4966987;28;20563;-62
2023/12/16 00:18:03;;;;;;;27.57;10.57;;;5.40;99.90;;;;;;4969950;28;20370;-64
2023/12/16 00:20:29;;;;;;;26.53;11.33;;;5.40;99.90;;;;;;4970912;28;20578;-63
2023/12/16 00:22:54;;;;;;;30.20;11.73;;;5.40;99.90;;;;;;4971414;28;20220;-63
2023/12/16 00:25:20;;;;;;;33.23;12.07;;;5.40;99.90;;;;;;4971192;28;20742;-62
2023/12/16 00:27:46;;;;;;;29.97;9.87;;;5.40;99.90;;;;;;4971356;28;20193;-63
2023/12/16 00:30:11;;;;;;;23.03;9.40;;;5.40;99.90;;;;;;4970870;28;20224;-62
2023/12/16 00:32:39;;;;;;;25.57;10.27;;;5.50;99.90;;;;;;4971337;28;20205;-63
2023/12/16 00:35:07;;;;;;;28.07;11.07;;;5.40;99.90;;;;;;4971283;28;20186;-63
2023/12/16 00:37:33;;;;;;;30.57;10.97;;;5.40;99.90;;;;;;4971452;28;20185;-63
2023/12/16 00:39:58;;;;;;;42.10;14.13;;;5.40;99.90;;;;;;4971051;28;20189;-63
2023/12/16 00:42:24;;;;;;;42.63;13.93;;;5.40;99.90;;;;;;4970716;28;20178;-64
2023/12/16 00:44:49;;;;;;;37.63;13.63;;;5.30;99.90;;;;;;4971265;28;20181;-63
2023/12/16 00:47:15;;;;;;;33.37;13.90;;;5.30;99.90;;;;;;4972162;28;20186;-63
2023/12/16 00:49:40;;;;;;;39.73;15.93;;;5.30;99.90;;;;;;4975202;28;20218;-62
2023/12/16 00:52:06;;;;;;;35.43;14.43;;;5.30;99.90;;;;;;4974327;28;20849;-63
2023/12/16 00:54:31;;;;;;;56.23;23.90;;;5.30;99.90;;;;;;4975096;28;20543;-63
2023/12/16 00:56:57;;;;;;;50.33;20.03;;;5.20;99.90;;;;;;4974553;28;20190;-63
2023/12/16 00:59:23;;;;;;;45.53;18.13;;;5.30;99.90;;;;;;4975005;28;20265;-63
2023/12/16 01:01:49;;;;;;;35.60;14.40;;;5.30;99.90;;;;;;4974184;28;20654;-62
2023/12/16 01:04:14;;;;;;;35.83;13.23;;;5.30;99.90;;;;;;4974934;28;20655;-63
2023/12/16 01:06:40;;;;;;;24.83;12.40;;;5.30;99.90;;;;;;4974903;28;20225;-63
2023/12/16 01:09:05;;;;;;;28.07;12.10;;;5.30;99.90;;;;;;4974668;28;20213;-63
2023/12/16 01:11:31;;;;;;;28.93;12.23;;;5.30;99.90;;;;;;4974094;28;20198;-64
2023/12/16 01:13:57;;;;;;;31.87;13.20;;;5.30;99.90;;;;;;4974726;28;20232;-63
2023/12/16 01:16:22;;;;;;;31.73;13.43;;;5.30;99.90;;;;;;4974726;28;20543;-62
2023/12/16 01:18:48;;;;;;;32.20;13.50;;;5.40;99.90;;;;;;4974640;28;20200;-64
2023/12/16 01:21:13;;;;;;;38.90;15.17;;;5.40;99.90;;;;;;4973837;28;20726;-63
2023/12/16 01:23:39;;;;;;;37.70;15.17;;;5.40;99.90;;;;;;4974670;28;20213;-64
2023/12/16 01:26:05;;;;;;;27.97;13.57;;;5.40;99.90;;;;;;4974521;28;20190;-64
2023/12/16 01:28:31;;;;;;;33.37;14.27;;;5.40;99.90;;;;;;4974547;28;20211;-63
2023/12/16 01:30:57;;;;;;;44.93;15.30;;;5.40;99.90;;;;;;4973606;28;20198;-63
2023/12/16 01:33:22;;;;;;;34.60;14.23;;;5.40;99.90;;;;;;4974499;28;20182;-62
2023/12/16 01:35:48;;;;;;;31.37;13.83;;;5.30;99.90;;;;;;4973126;28;20210;-62
2023/12/16 01:38:14;;;;;;;35.77;14.50;;;5.30;99.90;;;;;;4974401;28;20185;-64
2023/12/16 01:40:39;;;;;;;33.43;14.03;;;5.40;99.90;;;;;;4973687;28;20633;-64
2023/12/16 01:43:06;;;;;;;36.60;14.00;;;5.40;99.90;;;;;;4974160;28;20186;-63
2023/12/16 01:45:31;;;;;;;29.20;12.70;;;5.40;99.90;;;;;;4974262;28;20241;-62
2023/12/16 01:47:59;;;;;;;30.13;13.90;;;5.40;99.90;;;;;;4974036;28;20244;-62
2023/12/16 01:50:26;;;;;;;34.53;13.17;;;5.40;99.90;;;;;;4973773;28;20198;-63
2023/12/16 01:52:53;;;;;;;40.53;14.53;;;5.40;99.90;;;;;;4974063;28;20181;-63
2023/12/16 01:55:20;;;;;;;27.17;10.70;;;5.40;99.90;;;;;;4974206;28;20192;-64
2023/12/16 01:57:46;;;;;;;28.10;11.30;;;5.40;99.90;;;;;;4973754;28;20182;-64
2023/12/16 02:00:13;;;;;;;22.53;10.87;;;5.30;99.90;;;;;;4973579;28;20775;-64
2023/12/16 02:02:39;;;;;;;28.47;11.97;;;5.30;99.90;;;;;;4974127;28;20253;-63
2023/12/16 02:05:06;;;;;;;31.40;11.70;;;5.30;99.90;;;;;;4974142;28;20664;-64
2023/12/16 02:07:31;;;;;;;24.93;10.00;;;5.30;99.90;;;;;;4974252;28;20186;-62
2023/12/16 02:09:57;;;;;;;28.13;11.90;;;5.30;99.90;;;;;;4973707;28;20539;-63
2023/12/16 02:12:25;;;;;;;28.43;12.17;;;5.30;99.90;;;;;;4973245;28;20185;-63
2023/12/16 02:14:51;;;;;;;28.90;11.90;;;5.20;99.90;;;;;;4973612;28;20277;-63
2023/12/16 02:17:17;;;;;;;40.30;12.87;;;5.20;99.90;;;;;;4973663;28;20273;-63
2023/12/16 02:19:44;;;;;;;29.43;12.47;;;5.30;99.90;;;;;;4973676;28;20197;-60
2023/12/16 02:22:10;;;;;;;27.93;12.33;;;5.30;99.90;;;;;;4973097;28;20679;-63
2023/12/16 02:24:38;;;;;;;35.67;12.70;;;5.30;99.90;;;;;;4973526;28;20254;-63
2023/12/16 02:27:04;;;;;;;32.07;11.63;;;5.30;99.90;;;;;;4973333;28;20273;-63
2023/12/16 02:29:29;;;;;;;26.40;11.10;;;5.30;99.90;;;;;;4973403;28;20256;-62
2023/12/16 02:31:55;;;;;;;25.87;10.20;;;5.30;99.90;;;;;;4972711;28;20241;-61
2023/12/16 02:34:23;;;;;;;35.80;11.90;;;5.30;99.90;;;;;;4973374;28;20194;-62
2023/12/16 02:36:48;;;;;;;25.67;11.17;;;5.30;99.90;;;;;;4973225;28;20623;-61
2023/12/16 02:39:14;;;;;;;19.10;9.53;;;5.30;99.90;;;;;;4973306;28;20185;-61
2023/12/16 02:41:39;;;;;;;26.53;10.60;;;5.30;99.90;;;;;;4972588;28;20213;-62
2023/12/16 02:44:05;;;;;;;21.70;9.43;;;5.30;99.90;;;;;;4973153;28;20204;-61
2023/12/16 02:46:30;;;;;;;22.63;9.33;;;5.20;99.90;;;;;;4973055;28;20182;-61
2023/12/16 02:48:56;;;;;;;25.90;9.97;;;5.30;99.90;;;;;;4972937;28;20239;-60
2023/12/16 02:51:22;;;;;;;21.67;9.47;;;5.20;99.90;;;;;;4972464;28;20229;-62
2023/12/16 02:53:47;;;;;;;25.27;9.87;;;5.30;99.90;;;;;;4972948;28;20674;-62
2023/12/16 02:56:13;;;;;;;21.37;10.00;;;5.30;99.90;;;;;;4972766;28;20663;-61
2023/12/16 02:58:39;;;;;;;21.23;9.17;;;5.10;99.90;;;;;;4972970;28;20215;-60
2023/12/16 03:01:06;;;;;;;22.03;9.27;;;5.20;99.90;;;;;;4972056;28;20213;-58
2023/12/16 03:03:31;;;;;;;21.23;9.40;;;5.20;99.90;;;;;;4973019;28;20189;-61
2023/12/16 03:05:57;;;;;;;23.07;9.03;;;5.20;99.90;;;;;;4972885;28;20185;-61
2023/12/16 03:08:22;;;;;;;17.87;8.30;;;5.20;99.90;;;;;;4972993;28;20198;-57
2023/12/16 03:10:48;;;;;;;23.37;9.90;;;5.20;99.90;;;;;;4971358;28;20221;-61
2023/12/16 03:13:13;;;;;;;24.90;10.53;;;5.20;99.90;;;;;;4972603;28;20182;-60
2023/12/16 03:15:39;;;;;;;27.43;9.80;;;5.20;99.90;;;;;;4972483;28;20188;-60
2023/12/16 03:18:04;;;;;;;29.47;10.13;;;5.10;99.90;;;;;;4972680;28;20879;-61
2023/12/16 03:20:30;;;;;;;25.57;10.87;;;5.20;99.90;;;;;;4971722;28;20229;-58
2023/12/16 03:22:56;;;;;;;24.03;10.90;;;5.10;99.90;;;;;;4972396;28;20631;-61
2023/12/16 03:25:22;;;;;;;32.60;10.77;;;5.10;99.90;;;;;;4972441;28;20556;-59
2023/12/16 03:27:47;;;;;;;29.23;11.60;;;5.10;99.90;;;;;;4972132;28;20361;-61
2023/12/16 03:30:13;;;;;;;25.50;11.43;;;5.10;99.90;;;;;;4971487;28;20553;-59
2023/12/16 03:32:39;;;;;;;28.73;11.53;;;5.10;99.90;;;;;;4972259;28;20585;-58
2023/12/16 03:35:05;;;;;;;27.37;11.50;;;5.10;99.90;;;;;;4972302;28;20221;-58
2023/12/16 03:37:31;;;;;;;29.77;12.17;;;5.10;99.90;;;;;;4972140;28;20257;-61
2023/12/16 03:39:56;;;;;;;29.77;12.33;;;5.10;99.90;;;;;;4971955;28;20651;-61
2023/12/16 03:42:22;;;;;;;33.13;10.87;;;5.10;99.90;;;;;;4971878;28;20186;-61
2023/12/16 03:44:47;;;;;;;31.17;11.90;;;5.10;99.90;;;;;;4971862;28;20194;-61
2023/12/16 03:47:13;;;;;;;25.40;11.23;;;5.10;99.90;;;;;;4972287;28;20201;-60
2023/12/16 03:49:40;;;;;;;23.40;10.63;;;5.10;99.90;;;;;;4972145;28;20644;-61
2023/12/16 03:52:06;;;;;;;25.10;10.07;;;5.10;99.90;;;;;;4971020;28;20645;-61
2023/12/16 03:54:31;;;;;;;25.00;10.53;;;5.10;99.90;;;;;;4971895;28;20197;-61
2023/12/16 03:56:57;;;;;;;21.70;9.53;;;5.10;99.90;;;;;;4971544;28;20232;-60
2023/12/16 03:59:23;;;;;;;30.50;10.77;;;5.10;99.90;;;;;;4971756;28;20189;-61
2023/12/16 04:01:48;;;;;;;33.37;11.27;;;5.10;99.90;;;;;;4971044;28;20205;-61
2023/12/16 04:04:14;;;;;;;28.67;10.67;;;5.10;99.90;;;;;;4972013;28;20264;-61
2023/12/16 04:06:39;;;;;;;24.27;10.43;;;5.10;99.90;;;;;;4971910;28;20651;-61
2023/12/16 04:09:05;;;;;;;23.10;9.90;;;5.10;99.90;;;;;;4971504;28;20217;-61
2023/12/16 04:11:30;;;;;;;22.30;9.60;;;5.10;99.90;;;;;;4970598;28;20289;-61
2023/12/16 04:13:56;;;;;;;21.50;9.60;;;5.00;99.90;;;;;;4971561;28;20581;-61
2023/12/16 04:16:21;;;;;;;21.50;8.80;;;5.00;99.90;;;;;;4971616;28;20236;-61
2023/12/16 04:18:47;;;;;;;24.53;9.20;;;5.10;99.90;;;;;;4971492;28;20240;-59
2023/12/16 04:21:12;;;;;;;17.57;7.97;;;5.10;99.90;;;;;;4969995;28;20229;-62
2023/12/16 04:23:39;;;;;;;24.00;8.30;;;5.00;99.90;;;;;;4971546;28;20264;-62
2023/12/16 04:26:04;;;;;;;22.73;8.13;;;5.00;99.90;;;;;;4971205;28;20192;-62
2023/12/16 04:28:30;;;;;;;28.37;10.10;;;5.00;99.90;;;;;;4971422;28;20201;-61
2023/12/16 04:30:55;;;;;;;23.23;8.53;;;5.00;99.90;;;;;;4970850;28;20765;-61
2023/12/16 04:33:21;;;;;;;18.83;7.83;;;4.90;99.90;;;;;;4971683;28;20209;-61
2023/12/16 04:35:46;;;;;;;15.87;6.40;;;4.90;99.90;;;;;;4971561;28;20182;-61
2023/12/16 04:38:12;;;;;;;16.23;6.20;;;5.00;99.90;;;;;;4971592;28;20185;-61
2023/12/16 04:40:38;;;;;;;17.97;7.70;;;5.00;99.90;;;;;;4970573;28;20201;-62
2023/12/16 04:43:03;;;;;;;15.03;6.83;;;5.00;99.90;;;;;;4971095;28;20186;-62
2023/12/16 04:45:29;;;;;;;20.33;6.37;;;5.00;99.90;;;;;;4970081;28;20283;-62
2023/12/16 04:47:54;;;;;;;22.13;6.50;;;5.00;99.90;;;;;;4971321;28;20186;-62
2023/12/16 04:50:20;;;;;;;16.50;6.70;;;5.00;99.90;;;;;;4970585;28;20746;-62
2023/12/16 04:52:45;;;;;;;18.83;6.73;;;5.00;99.90;;;;;;4970090;28;20613;-62
2023/12/16 04:55:11;;;;;;;21.57;7.37;;;5.00;99.90;;;;;;4970946;28;20254;-61
2023/12/16 04:57:36;;;;;;;10.97;5.73;;;5.00;99.90;;;;;;4970995;28;20185;-63
2023/12/16 05:00:04;;;;;;;17.23;6.63;;;5.00;99.90;;;;;;4970700;28;20190;-63
2023/12/16 05:02:30;;;;;;;28.37;8.07;;;5.00;99.90;;;;;;4970601;28;20178;-62
2023/12/16 05:04:56;;;;;;;17.97;7.27;;;4.90;99.90;;;;;;4970953;28;20185;-63
2023/12/16 05:07:21;;;;;;;14.07;6.17;;;4.90;99.90;;;;;;4971172;28;20563;-61
2023/12/16 05:09:47;;;;;;;18.07;7.97;;;4.90;99.90;;;;;;4970793;28;20206;-62
2023/12/16 05:12:13;;;;;;;25.77;6.83;;;4.90;99.90;;;;;;4970509;28;20198;-63
2023/12/16 05:14:41;;;;;;;20.47;7.10;;;4.90;99.90;;;;;;4971172;28;20182;-63
2023/12/16 05:17:07;;;;;;;15.50;6.70;;;4.90;99.90;;;;;;4970940;28;20200;-62
2023/12/16 05:19:32;;;;;;;22.33;6.83;;;4.90;99.90;;;;;;4971030;28;20284;-62
2023/12/16 05:21:58;;;;;;;17.70;6.40;;;4.80;99.90;;;;;;4970281;28;20574;-62
2023/12/16 05:24:24;;;;;;;11.87;5.73;;;4.70;99.90;;;;;;4971113;28;20186;-62
2023/12/16 05:26:50;;;;;;;16.20;5.37;;;4.70;99.90;;;;;;4970798;28;20659;-61
2023/12/16 05:29:15;;;;;;;21.03;7.40;;;4.70;99.90;;;;;;4971064;28;20694;-62
2023/12/16 05:31:41;;;;;;;19.80;6.50;;;4.60;99.90;;;;;;4970367;28;20246;-63
2023/12/16 05:34:07;;;;;;;16.43;4.97;;;4.60;99.90;;;;;;4973726;28;20217;-62
2023/12/16 05:36:32;;;;;;;18.47;6.27;;;4.60;99.90;;;;;;4974394;28;20203;-63
2023/12/16 05:38:58;;;;;;;19.10;7.03;;;4.60;99.90;;;;;;4974294;28;20247;-59
2023/12/16 05:41:23;;;;;;;21.17;5.40;;;4.60;99.90;;;;;;4973624;28;20210;-60
2023/12/16 05:43:49;;;;;;;13.80;5.03;;;4.60;99.90;;;;;;4974204;28;20190;-62
2023/12/16 05:46:15;;;;;;;16.03;5.50;;;4.60;99.90;;;;;;4974376;28;20185;-60
2023/12/16 05:48:40;;;;;;;18.97;7.43;;;4.60;99.90;;;;;;4974162;28;20596;-62
2023/12/16 05:51:06;;;;;;;12.63;5.37;;;4.50;99.90;;;;;;4973405;28;20205;-63
2023/12/16 05:53:34;;;;;;;20.10;5.97;;;4.50;99.90;;;;;;4973847;28;20193;-62
2023/12/16 05:55:59;;;;;;;14.53;4.87;;;4.50;99.90;;;;;;4973862;28;20190;-63
2023/12/16 05:58:25;;;;;;;9.40;4.57;;;4.60;99.90;;;;;;4974022;28;20212;-62
2023/12/16 06:00:51;;;;;;;15.77;4.80;;;4.60;99.90;;;;;;4973173;28;20292;-62
2023/12/16 06:03:16;;;;;;;11.60;4.67;;;4.50;99.90;;;;;;4973986;28;20193;-63
2023/12/16 06:05:42;;;;;;;12.47;4.17;;;4.50;99.90;;;;;;4974057;28;20212;-61
2023/12/16 06:08:07;;;;;;;9.67;3.93;;;4.50;99.90;;;;;;4973597;28;20280;-60
2023/12/16 06:10:33;;;;;;;10.97;4.17;;;4.40;99.90;;;;;;4973051;28;20198;-62
2023/12/16 06:12:58;;;;;;;12.80;4.70;;;4.40;99.90;;;;;;4973554;28;20203;-63
2023/12/16 06:15:25;;;;;;;19.17;4.93;;;4.30;99.90;;;;;;4973778;28;20182;-62
2023/12/16 06:17:50;;;;;;;19.13;4.30;;;4.30;99.90;;;;;;4973503;28;20663;-61
2023/12/16 06:20:16;;;;;;;14.50;3.97;;;4.30;99.90;;;;;;4972807;28;20198;-62
2023/12/16 06:22:42;;;;;;;11.80;4.73;;;4.30;99.90;;;;;;4973490;28;20192;-62
2023/12/16 06:25:08;;;;;;;13.93;4.40;;;4.20;99.90;;;;;;4973385;28;20269;-63
2023/12/16 06:27:33;;;;;;;13.43;4.20;;;4.20;99.90;;;;;;4973387;28;20321;-62
2023/12/16 06:29:59;;;;;;;13.93;4.30;;;4.10;99.90;;;;;;4973048;28;20228;-61
2023/12/16 06:32:24;;;;;;;11.30;4.50;;;4.30;99.90;;;;;;4972964;28;20170;-63
2023/12/16 06:34:50;;;;;;;15.30;5.27;;;4.30;99.90;;;;;;4973166;28;20260;-63
2023/12/16 06:37:16;;;;;;;12.80;4.83;;;4.40;99.90;;;;;;4973282;28;20182;-62
2023/12/16 06:39:41;;;;;;;10.90;5.00;;;4.40;99.90;;;;;;4973180;28;20186;-62
2023/12/16 06:42:07;;;;;;;17.70;6.90;;;4.40;99.90;;;;;;4972329;28;20214;-63
2023/12/16 06:44:33;;;;;;;13.77;5.80;;;4.40;99.90;;;;;;4972291;28;20190;-62
2023/12/16 06:46:58;;;;;;;16.77;6.40;;;4.50;99.90;;;;;;4972978;28;20188;-61
2023/12/16 06:49:24;;;;;;;17.73;6.80;;;4.50;99.90;;;;;;4973008;28;20213;-62
2023/12/16 06:51:49;;;;;;;18.53;7.27;;;4.60;99.90;;;;;;4972149;28;20229;-62
2023/12/16 06:54:15;;;;;;;20.60;6.57;;;4.60;99.90;;;;;;4972909;28;20604;-63
2023/12/16 06:56:41;;;;;;;24.73;6.77;;;4.60;99.90;;;;;;4972858;28;20578;-62
2023/12/16 06:59:06;;;;;;;19.20;6.10;;;4.60;99.90;;;;;;4972666;28;20197;-63
2023/12/16 07:01:32;;;;;;;18.43;6.43;;;4.60;99.90;;;;;;4972173;28;20205;-62
2023/12/16 07:03:57;;;;;;;11.47;6.03;;;4.60;99.90;;;;;;4972404;28;20561;-63
2023/12/16 07:06:23;;;;;;;16.33;5.90;;;4.60;99.90;;;;;;4972864;28;20181;-63
2023/12/16 07:08:48;;;;;;;14.80;6.17;;;4.70;99.90;;;;;;4972497;28;20739;-62
2023/12/16 07:11:14;;;;;;;17.30;6.20;;;4.70;99.90;;;;;;4971880;28;20754;-63
2023/12/16 07:13:40;;;;;;;19.03;6.23;;;4.70;99.90;;;;;;4972887;28;20182;-62
2023/12/16 07:16:06;;;;;;;16.80;6.90;;;4.70;99.90;;;;;;4972449;28;20192;-62
2023/12/16 07:18:32;;;;;;;16.87;6.60;;;4.70;99.90;;;;;;4972684;28;20229;-62
2023/12/16 07:20:57;;;;;;;17.13;6.40;;;4.70;99.90;;;;;;4971661;28;20225;-62
2023/12/16 07:23:24;;;;;;;23.73;7.40;;;4.70;99.90;;;;;;4972392;28;20561;-63
2023/12/16 07:25:50;;;;;;;17.33;7.23;;;4.70;99.90;;;;;;4972168;28;20625;-63
2023/12/16 07:28:16;;;;;;;22.87;8.50;;;4.80;99.90;;;;;;4972296;28;20280;-62
2023/12/16 07:30:42;;;;;;;21.23;7.97;;;4.80;99.90;;;;;;4971843;28;20553;-61
2023/12/16 07:33:07;;;;;;;16.30;7.03;;;4.80;99.90;;;;;;4964966;28;20197;-62
2023/12/16 07:35:35;;;;;;;16.50;6.67;;;4.80;99.90;;;;;;4972054;28;20718;-62
2023/12/16 07:38:00;;;;;;;22.50;6.57;;;4.80;99.90;;;;;;4971495;28;20543;-62
2023/12/16 07:40:26;;;;;;;20.57;6.67;;;4.80;99.90;;;;;;4970321;28;20213;-62
2023/12/16 07:42:51;;;;;;;14.33;5.97;;;4.80;99.90;;;;;;4971532;28;20189;-61
2023/12/16 07:45:17;;;;;;;15.70;5.73;;;4.80;99.90;;;;;;4971423;28;20186;-62
2023/12/16 07:47:43;;;;;;;13.60;5.73;;;4.90;99.90;;;;;;4971403;28;20264;-60
2023/12/16 07:50:10;;;;;;;12.53;5.70;;;4.90;99.90;;;;;;4970240;28;20214;-61
2023/12/16 07:52:36;;;;;;;11.73;5.10;;;4.90;99.90;;;;;;4969874;28;20229;-61
2023/12/16 07:55:02;;;;;;;23.13;8.63;;;4.90;99.90;;;;;;4970741;28;20185;-63
2023/12/16 07:57:28;;;;;;;17.97;6.87;;;5.00;99.90;;;;;;4971055;28;20276;-63
2023/12/16 07:59:53;;;;;;;17.57;7.27;;;5.00;99.90;;;;;;4970636;28;20277;-63
2023/12/16 08:02:19;;;;;;;15.07;6.23;;;5.10;99.90;;;;;;4970698;28;20240;-59
2023/12/16 08:04:45;;;;;;;14.90;6.20;;;5.10;99.90;;;;;;4971155;28;20718;-61
2023/12/16 08:07:10;;;;;;;11.47;4.83;;;5.10;99.90;;;;;;4970723;28;20181;-63
2023/12/16 08:09:36;;;;;;;13.30;5.23;;;5.10;99.90;;;;;;4970809;28;20229;-62
2023/12/16 08:12:02;;;;;;;11.37;4.47;;;5.20;99.90;;;;;;4969906;28;20226;-63
2023/12/16 08:17:55;;;;;;;12.03;5.00;;;5.30;99.90;;;;;;4992620;28;20239;-60
2023/12/16 08:20:54;;;;;;;14.23;5.30;;;5.30;99.90;;;;;;4994652;28;20233;-60
2023/12/16 08:23:31;;;;;;;10.87;5.50;;;5.40;99.90;;;;;;4987904;28;20304;-60
2023/12/16 08:26:34;;;;;;;16.17;5.77;;;5.40;99.90;;;;;;4995410;28;20185;-60
2023/12/16 08:29:49;;;;;;;10.33;5.43;;;5.50;99.90;;;;;;4994913;28;20210;-61
2023/12/16 08:33:12;;;;;;;15.97;6.50;;;5.50;99.90;;;;;;5012329;28;20164;-61
2023/12/16 08:35:42;;;;;;;19.70;7.00;;;5.60;99.90;;;;;;4999740;28;20204;-63
2023/12/16 08:38:22;;;;;;;193.35;17.38;;;5.60;99.90;;;;;;4983391;28;20516;-61
2023/12/16 08:40:48;;;;;;;37.10;9.23;;;5.70;99.90;;;;;;4973798;28;20304;-63
2023/12/16 08:43:13;;;;;;;52.97;9.37;;;5.70;99.90;;;;;;4974671;28;20277;-63
2023/12/16 08:45:39;;;;;;;18.63;8.20;;;5.80;99.90;;;;;;4970463;28;20190;-64
2023/12/16 08:48:05;;;;;;;15.07;7.73;;;5.90;99.90;;;;;;4970228;28;20194;-64
2023/12/16 08:50:30;;;;;;;19.97;7.87;;;6.00;99.90;;;;;;4969821;28;20273;-63
2023/12/16 08:52:56;;;;;;;25.97;8.40;;;6.00;99.90;;;;;;4970408;28;20645;-63
2023/12/16 08:55:24;;;;;;;18.40;8.00;;;6.00;99.90;;;;;;4970391;28;20186;-64
2023/12/16 08:57:50;;;;;;;21.57;8.67;;;6.00;99.90;;;;;;4970469;28;20233;-63
2023/12/16 09:00:16;;;;;;;19.90;8.20;;;6.00;99.90;;;;;;4969774;28;20190;-63
2023/12/16 09:02:41;;;;;;;14.87;8.17;;;6.10;99.90;;;;;;4970060;28;20722;-63
2023/12/16 09:05:07;;;;;;;24.60;9.10;;;6.20;99.90;;;;;;4970180;28;20185;-63
2023/12/16 09:07:34;;;;;;;26.27;10.00;;;6.30;99.90;;;;;;4971065;28;20570;-62
2023/12/16 09:09:59;;;;;;;25.23;11.23;;;6.30;99.90;;;;;;4973737;28;20228;-65
2023/12/16 09:12:25;;;;;;;31.63;11.20;;;6.40;99.90;;;;;;4973449;28;20652;-64
2023/12/16 09:14:50;;;;;;;22.80;8.47;;;6.50;99.90;;;;;;4973778;28;20189;-65
2023/12/16 09:17:16;;;;;;;23.00;8.70;;;6.50;99.90;;;;;;4973895;28;20193;-64
2023/12/16 09:19:41;;;;;;;20.50;8.97;;;6.60;99.90;;;;;;4973664;28;20206;-65
2023/12/16 09:22:07;;;;;;;20.37;8.70;;;6.70;99.90;;;;;;4973137;28;20352;-65
2023/12/16 09:24:33;;;;;;;28.13;12.57;;;6.70;99.90;;;;;;4973942;28;20280;-66
2023/12/16 09:26:59;;;;;;;23.40;12.43;;;6.80;99.90;;;;;;4973738;28;20201;-65
2023/12/16 09:29:25;;;;;;;32.03;13.73;;;6.90;99.90;;;;;;4973609;28;20715;-64
2023/12/16 09:31:51;;;;;;;33.30;14.03;;;7.00;99.90;;;;;;4973124;28;20595;-63
2023/12/16 09:34:16;;;;;;;23.83;12.07;;;7.00;99.90;;;;;;4973646;28;20660;-64
2023/12/16 09:36:42;;;;;;;22.93;11.83;;;7.00;99.90;;;;;;4973729;28;20193;-64
2023/12/16 09:39:10;;;;;;;20.33;10.87;;;7.00;99.90;;;;;;4973288;28;20201;-64
2023/12/16 09:41:42;;;;;;;21.40;9.80;;;7.00;99.90;;;;;;4973132;28;20220;-64
2023/12/16 09:44:09;;;;;;;39.97;11.03;;;7.10;99.90;;;;;;4973508;28;20225;-63
2023/12/16 09:46:36;;;;;;;26.20;11.47;;;7.10;99.90;;;;;;4973616;28;20190;-63
2023/12/16 09:49:02;;;;;;;26.57;10.83;;;7.10;99.90;;;;;;4973158;28;20202;-64
2023/12/16 09:51:28;;;;;;;28.90;11.93;;;7.10;99.90;;;;;;4972507;28;20289;-64
2023/12/16 09:53:54;;;;;;;26.80;12.83;;;7.20;99.90;;;;;;4973309;28;20596;-65
2023/12/16 09:56:21;;;;;;;28.83;12.00;;;7.30;99.90;;;;;;4973135;28;20200;-62
2023/12/16 09:58:47;;;;;;;39.63;16.83;;;7.40;99.90;;;;;;4973140;28;20193;-62
2023/12/16 10:01:14;;;;;;;25.40;10.07;;;7.50;99.90;;;;;;4972807;28;20300;-61
2023/12/16 10:03:41;;;;;;;14.90;7.90;;;7.50;99.90;;;;;;4973106;28;20213;-62
2023/12/16 10:06:10;;;;;;;16.93;8.07;;;7.60;99.90;;;;;;4972857;28;20190;-61
2023/12/16 10:08:41;;;;;;;20.83;8.50;;;7.70;99.90;;;;;;4972762;28;20288;-62
2023/12/16 10:11:07;;;;;;;17.87;8.13;;;7.70;99.90;;;;;;4972210;28;20236;-60
2023/12/16 10:13:53;;;;;;;15.77;7.50;;;7.80;99.90;;;;;;4973095;28;20213;-62
2023/12/16 10:16:21;;;;;;;18.33;6.77;;;7.90;99.90;;;;;;4972869;28;20214;-59
2023/12/16 10:18:54;;;;;;;17.50;6.53;;;7.90;99.90;;;;;;4972148;28;20194;-61
2023/12/16 10:21:31;;;;;;;19.90;6.37;;;7.90;99.90;;;;;;4971935;28;20272;-62
2023/12/16 10:24:01;;;;;;;14.03;6.63;;;8.00;99.90;;;;;;4972637;28;20189;-60
2023/12/16 10:26:31;;;;;;;16.10;6.63;;;8.10;99.90;;;;;;4972677;28;20603;-61
2023/12/16 10:28:57;;;;;;;20.90;7.07;;;8.20;99.90;;;;;;4972756;28;20687;-57
2023/12/16 10:31:24;;;;;;;22.37;8.90;;;8.20;99.90;;;;;;4971889;28;20240;-61
2023/12/16 10:33:53;;;;;;;20.27;8.50;;;8.30;99.90;;;;;;4964760;28;20198;-63
2023/12/16 10:36:19;;;;;;;18.23;8.07;;;8.40;99.90;;;;;;4964647;28;20277;-61
2023/12/16 10:38:44;;;;;;;38.40;16.23;;;8.40;99.90;;;;;;4969820;28;20600;-63
2023/12/16 10:41:10;;;;;;;26.63;9.87;;;8.10;99.90;;;;;;4967768;28;20213;-64
2023/12/16 10:43:37;;;;;;;24.33;11.10;;;8.10;99.90;;;;;;4965709;28;20272;-62
2023/12/16 10:46:04;;;;;;;28.93;13.10;;;8.20;99.90;;;;;;4966130;28;20219;-66
2023/12/16 10:48:34;;;;;;;34.50;14.77;;;8.40;99.90;;;;;;4966185;28;20232;-58
2023/12/16 10:51:05;;;;;;;32.37;13.17;;;8.50;99.90;;;;;;4969404;28;20233;-61
2023/12/16 10:53:40;;;;;;;37.40;12.20;;;8.50;99.90;;;;;;4970358;28;20228;-62
2023/12/16 10:56:24;;;;;;;29.40;10.57;;;8.70;99.90;;;;;;4969989;28;20254;-63
2023/12/16 10:59:02;;;;;;;16.20;7.23;;;8.70;99.90;;;;;;4964578;28;20722;-61
2023/12/16 11:01:29;;;;;;;94.70;23.37;;;8.80;99.90;;;;;;4963786;28;20256;-61
2023/12/16 11:04:06;;;;;;;93.97;24.97;;;8.80;99.90;;;;;;4971849;28;20209;-62
2023/12/16 11:06:42;;;;;;;34.27;10.60;;;8.90;99.90;;;;;;4970584;28;20230;-61
2023/12/16 11:09:10;;;;;;;16.93;4.97;;;8.90;99.90;;;;;;4969883;28;20240;-60
2023/12/16 11:11:36;;;;;;;13.93;3.30;;;8.90;99.90;;;;;;4970374;28;20210;-61
2023/12/16 11:14:02;;;;;;;14.67;2.70;;;8.80;99.90;;;;;;4970479;28;20197;-62
2023/12/16 11:16:49;;;;;;;13.17;2.50;;;8.80;99.90;;;;;;4971701;28;20594;-64
2023/12/16 11:19:16;;;;;;;11.87;2.97;;;8.70;99.90;;;;;;4971357;28;20185;-64
2023/12/16 11:21:43;;;;;;;18.63;3.13;;;8.70;99.90;;;;;;4967377;28;20715;-63
2023/12/16 11:24:10;;;;;;;13.57;3.03;;;8.70;99.90;;;;;;4971637;28;20198;-63
2023/12/16 11:26:35;;;;;;;9.90;1.93;;;8.80;99.90;;;;;;4971238;28;20425;-64
2023/12/16 11:29:04;;;;;;;15.37;2.40;;;8.80;99.90;;;;;;4971338;28;20574;-63
2023/12/16 11:31:30;;;;;;;14.77;2.73;;;8.90;99.90;;;;;;4970350;28;20206;-64
2023/12/16 11:33:56;;;;;;;14.80;2.40;;;9.00;99.90;;;;;;4971476;28;20199;-66
2023/12/16 11:36:48;;;;;;;21.73;2.77;;;9.00;99.90;;;;;;4980310;28;20715;-62
2023/12/16 11:39:37;;;;;;;13.40;2.90;;;9.10;99.90;;;;;;4971454;28;20233;-63
2023/12/16 11:42:03;;;;;;;12.53;2.20;;;9.00;99.90;;;;;;4970389;28;20309;-65
2023/12/16 11:44:53;;;;;;;15.70;3.17;;;9.10;99.90;;;;;;4971366;28;20212;-64
2023/12/16 11:47:27;;;;;;;18.53;2.80;;;9.40;99.90;;;;;;4971405;28;20190;-64
2023/12/16 11:49:56;;;;;;;14.93;2.97;;;9.90;99.90;;;;;;4971489;28;20380;-64
2023/12/16 11:52:23;;;;;;;12.07;2.70;;;10.40;99.90;;;;;;4970900;28;20332;-64
2023/12/16 11:54:54;;;;;;;11.27;2.17;;;11.00;99.90;;;;;;4971246;28;20638;-64
2023/12/16 11:57:21;;;;;;;11.73;3.20;;;11.60;99.90;;;;;;4963503;28;20188;-62
2023/12/16 11:59:47;;;;;;;16.23;3.23;;;11.50;99.90;;;;;;4970965;28;20221;-64
2023/12/16 12:02:13;;;;;;;13.77;3.13;;;11.40;99.90;;;;;;4970315;28;20641;-63
2023/12/16 12:04:40;;;;;;;17.20;3.20;;;11.30;99.90;;;;;;4971003;28;20204;-63
2023/12/16 12:07:06;;;;;;;13.07;3.00;;;11.50;99.90;;;;;;4970876;28;20293;-64
2023/12/16 12:09:31;;;;;;;9.30;2.57;;;11.80;99.90;;;;;;4970820;28;20304;-64
2023/12/16 12:11:57;;;;;;;9.77;3.00;;;11.90;99.90;;;;;;4970237;28;20205;-63
2023/12/16 12:14:24;;;;;;;5.37;2.10;;;12.10;99.90;;;;;;4970839;28;20734;-63
2023/12/16 12:16:50;;;;;;;8.97;2.60;;;12.10;99.90;;;;;;4970794;28;20185;-62
2023/12/16 12:19:16;;;;;;;12.27;2.33;;;12.00;99.90;;;;;;4967947;28;20240;-62
2023/12/16 12:21:42;;;;;;;14.27;2.43;;;11.90;99.90;;;;;;4968499;28;20217;-60
2023/12/16 12:24:08;;;;;;;12.10;1.90;;;11.90;99.90;;;;;;4969825;28;21166;-60
2023/12/16 12:26:34;;;;;;;9.07;1.80;;;11.80;99.90;;;;;;4968980;28;20198;-61
2023/12/16 12:29:03;;;;;;;15.47;2.77;;;11.50;99.90;;;;;;4970459;28;20256;-59
2023/12/16 12:31:30;;;;;;;13.57;2.90;;;11.20;99.90;;;;;;4962128;28;20264;-59
2023/12/16 12:33:56;;;;;;;11.30;2.53;;;10.90;99.90;;;;;;4970543;28;20181;-60
2023/12/16 12:36:21;;;;;;;9.30;2.27;;;10.60;99.90;;;;;;4970731;28;20276;-59
2023/12/16 12:38:54;;;;;;;12.40;2.40;;;10.40;99.90;;;;;;4970336;28;20281;-59
2023/12/16 12:41:20;;;;;;;9.07;2.27;;;10.20;99.90;;;;;;4969221;28;20206;-59
2023/12/16 12:43:45;;;;;;;15.97;2.47;;;10.00;99.90;;;;;;4973674;28;20196;-60
2023/12/16 12:46:16;;;;;;;13.93;2.53;;;9.90;99.90;;;;;;4974261;28;20200;-60